Time;durP1;ratioP1;P1;durP2;ratioP2;P2;SDS_P1;SDS_P2;PMS_P1;PMS_P2;Temp;Humidity;BMP_temperature;BMP_pressure;BME280_temperature;BME280_humidity;BME280_pressure;Samples;Min_cycle;Max_cycle;Signal;HPM_P1;HPM_P2
2022/09/16 00:00:42;;;;;;;;;;;;;;;18.50;73.07;94812.59;5043833;28;20014;-64
2022/09/16 00:03:07;;;;;;;;;;;;;;;18.45;72.88;94821.75;5070118;28;20119;-64
2022/09/16 00:05:32;;;;;;;;;;;;;;;18.39;72.68;94811.66;5069097;28;20009;-64
2022/09/16 00:07:57;;;;;;;;;;;;;;;18.35;73.07;94814.28;5066524;28;20013;-64
2022/09/16 00:10:23;;;;;;;;;;;;;;;18.37;73.34;94812.00;5049644;28;20532;-64
2022/09/16 00:12:48;;;;;;;;;;;;;;;18.38;73.34;94808.19;5069820;28;20011;-64
2022/09/16 00:15:14;;;;;;;;;;;;;;;18.47;73.35;94810.63;5051216;28;20009;-64
2022/09/16 00:17:39;;;;;;;;;;;;;;;18.52;73.17;94804.94;5068013;28;20461;-65
2022/09/16 00:20:05;;;;;;;;;;;;;;;18.56;73.26;94805.00;5031617;28;20016;-64
2022/09/16 00:22:31;;;;;;;;;;;;;;;18.55;72.94;94795.34;5068221;28;20492;-64
2022/09/16 00:24:56;;;;;;;;;;;;;;;18.55;73.08;94796.13;5051182;28;20016;-65
2022/09/16 00:27:21;;;;;;;;;;;;;;;18.53;73.02;94795.72;5051516;28;20013;-64
2022/09/16 00:29:47;;;;;;;;;;;;;;;18.56;73.11;94786.91;5051156;28;20061;-64
2022/09/16 00:32:12;;;;;;;;;;;;;;;18.55;72.55;94779.19;5068066;28;20013;-64
2022/09/16 00:34:37;;;;;;;;;;;;;;;18.49;72.71;94784.13;5071119;28;20458;-64
2022/09/16 00:37:03;;;;;;;;;;;;;;;18.41;72.63;94779.75;5072180;28;20575;-65
2022/09/16 00:39:28;;;;;;;;;;;;;;;18.37;72.80;94787.78;5053237;28;20013;-64
2022/09/16 00:41:54;;;;;;;;;;;;;;;18.13;72.45;94782.81;5071845;28;20013;-64
2022/09/16 00:44:38;;;;;;;;;;;;;;;18.04;72.81;94779.56;5073449;28;20453;-64
2022/09/16 00:47:03;;;;;;;;;;;;;;;18.01;73.00;94783.75;5053308;28;20020;-64
2022/09/16 00:49:29;;;;;;;;;;;;;;;17.95;72.72;94795.94;5072034;28;20017;-65
2022/09/16 00:51:58;;;;;;;;;;;;;;;17.90;72.95;94788.19;5050938;28;20020;-64
2022/09/16 00:54:24;;;;;;;;;;;;;;;17.83;73.04;94801.53;5071487;28;20477;-64
2022/09/16 00:56:51;;;;;;;;;;;;;;;17.77;73.21;94795.66;5051368;28;20468;-64
2022/09/16 00:59:23;;;;;;;;;;;;;;;17.70;73.19;94795.50;5070913;28;20416;-64
2022/09/16 01:01:49;;;;;;;;;;;;;;;17.67;73.03;94794.31;5053056;28;20009;-64
2022/09/16 01:04:26;;;;;;;;;;;;;;;17.59;73.32;94800.69;5055363;28;20100;-64
2022/09/16 01:06:51;;;;;;;;;;;;;;;17.54;73.55;94800.19;5054350;28;20016;-64
2022/09/16 01:09:18;;;;;;;;;;;;;;;17.50;73.65;94800.13;5050805;28;20101;-65
2022/09/16 01:11:43;;;;;;;;;;;;;;;17.49;73.69;94801.25;5067113;28;20056;-65
2022/09/16 01:16:58;;;;;;;;;;;;;;;17.54;74.27;94787.53;5069815;28;20643;-65
2022/09/16 01:19:26;;;;;;;;;;;;;;;17.61;73.85;94786.88;5070353;28;20097;-65
2022/09/16 01:22:19;;;;;;;;;;;;;;;17.60;74.21;94788.78;5054852;28;20013;-65
2022/09/16 01:24:47;;;;;;;;;;;;;;;17.60;74.07;94782.63;5071281;28;20017;-65
2022/09/16 01:27:17;;;;;;;;;;;;;;;17.44;74.05;94793.47;5052101;28;20132;-66
2022/09/16 01:29:55;;;;;;;;;;;;;;;17.52;74.15;94792.50;5053601;28;20021;-65
2022/09/16 01:32:26;;;;;;;;;;;;;;;17.55;74.14;94783.69;5069350;28;20147;-65
2022/09/16 01:35:03;;;;;;;;;;;;;;;17.58;74.06;94782.22;5072753;28;20009;-65
2022/09/16 01:37:43;;;;;;;;;;;;;;;17.58;74.35;94780.31;5071219;28;20455;-65
2022/09/16 01:40:32;;;;;;;;;;;;;;;17.58;73.93;94776.84;5050770;28;20018;-64
2022/09/16 01:42:57;;;;;;;;;;;;;;;17.65;74.05;94782.34;5052841;28;20033;-66
2022/09/16 01:45:42;;;;;;;;;;;;;;;17.67;74.25;94778.16;5053650;28;20413;-66
2022/09/16 01:48:08;;;;;;;;;;;;;;;17.72;74.13;94781.69;5058587;28;20013;-66
2022/09/16 01:50:39;;;;;;;;;;;;;;;17.73;74.14;94780.59;5052246;28;20027;-65
2022/09/16 01:53:11;;;;;;;;;;;;;;;17.75;74.11;94786.38;5054548;28;20070;-66
2022/09/16 01:55:39;;;;;;;;;;;;;;;17.80;73.98;94783.41;5052743;28;20009;-65
2022/09/16 01:58:04;;;;;;;;;;;;;;;17.82;74.09;94783.81;5069978;28;20009;-65
2022/09/16 02:00:31;;;;;;;;;;;;;;;17.81;73.94;94791.13;5069308;28;20009;-66
2022/09/16 02:03:05;;;;;;;;;;;;;;;17.78;73.76;94782.97;5054273;28;20571;-65
2022/09/16 02:05:36;;;;;;;;;;;;;;;17.77;73.88;94790.28;5071453;28;20104;-65
2022/09/16 02:08:04;;;;;;;;;;;;;;;17.35;72.46;94790.22;5071252;28;20369;-66
2022/09/16 02:10:38;;;;;;;;;;;;;;;17.45;73.64;94786.19;5051805;28;20013;-65
2022/09/16 02:13:18;;;;;;;;;;;;;;;17.12;73.21;94792.88;5053708;28;20009;-65
2022/09/16 02:15:46;;;;;;;;;;;;;;;17.19;73.80;94794.91;5052438;28;20013;-65
2022/09/16 02:18:13;;;;;;;;;;;;;;;17.33;74.07;94798.66;5069738;28;20020;-65
2022/09/16 02:20:41;;;;;;;;;;;;;;;17.46;73.99;94790.44;5052897;28;20022;-65
2022/09/16 02:23:28;;;;;;;;;;;;;;;17.58;74.00;94804.50;5054020;28;20484;-66
2022/09/16 02:25:54;;;;;;;;;;;;;;;17.73;74.03;94794.03;5052067;28;20021;-65
2022/09/16 02:28:22;;;;;;;;;;;;;;;17.75;73.66;94795.22;5070607;28;20013;-65
2022/09/16 02:30:49;;;;;;;;;;;;;;;17.85;73.91;94791.16;5052158;28;20024;-65
2022/09/16 02:33:16;;;;;;;;;;;;;;;17.92;73.60;94791.31;5053480;28;20009;-65
2022/09/16 02:35:43;;;;;;;;;;;;;;;17.60;72.90;94788.00;5050912;28;20058;-65
2022/09/16 02:38:11;;;;;;;;;;;;;;;17.72;73.63;94785.16;5052105;28;20014;-66
2022/09/16 02:40:40;;;;;;;;;;;;;;;17.54;72.94;94795.59;5069853;28;20389;-64
2022/09/16 02:43:06;;;;;;;;;;;;;;;17.71;73.68;94796.25;5053550;28;20014;-65
2022/09/16 02:45:50;;;;;;;;;;;;;;;17.86;73.92;94795.41;5051768;28;20366;-65
2022/09/16 02:48:18;;;;;;;;;;;;;;;17.94;73.83;94786.34;5070139;28;20013;-66
2022/09/16 02:51:06;;;;;;;;;;;;;;;17.99;73.81;94788.72;5069834;28;20017;-65
2022/09/16 02:53:31;;;;;;;;;;;;;;;18.03;73.50;94791.47;5042728;28;20535;-65
2022/09/16 02:56:02;;;;;;;;;;;;;;;18.09;73.55;94785.44;5051819;28;20116;-65
2022/09/16 02:58:28;;;;;;;;;;;;;;;18.15;73.73;94783.22;5069798;28;20100;-65
2022/09/16 03:00:54;;;;;;;;;;;;;;;18.17;73.08;94779.03;5051539;28;20009;-66
2022/09/16 03:03:19;;;;;;;;;;;;;;;18.15;73.17;94780.50;5071300;28;20100;-65
2022/09/16 03:06:10;;;;;;;;;;;;;;;18.17;73.09;94783.66;5051782;28;20471;-65
2022/09/16 03:08:36;;;;;;;;;;;;;;;18.19;73.33;94774.06;5068809;28;20040;-66
2022/09/16 03:11:12;;;;;;;;;;;;;;;18.13;72.66;94777.41;5050509;28;20044;-66
2022/09/16 03:13:53;;;;;;;;;;;;;;;17.76;71.49;94777.97;5069411;28;20008;-65
2022/09/16 03:16:24;;;;;;;;;;;;;;;17.72;72.75;94768.25;5070132;28;20473;-66
2022/09/16 03:18:49;;;;;;;;;;;;;;;17.33;73.13;94691.13;5070333;28;20009;-65
2022/09/16 03:21:31;;;;;;;;;;;;;;;18.01;73.29;94772.22;5070750;28;20053;-65
2022/09/16 03:24:07;;;;;;;;;;;;;;;18.03;73.28;94773.41;5069777;28;20112;-65
2022/09/16 03:26:42;;;;;;;;;;;;;;;18.12;73.45;94763.19;5067805;28;20682;-65
2022/09/16 03:29:16;;;;;;;;;;;;;;;17.92;71.55;94759.00;5051547;28;20013;-65
2022/09/16 03:31:42;;;;;;;;;;;;;;;17.91;72.54;94755.56;5051789;28;20016;-65
2022/09/16 03:34:37;;;;;;;;;;;;;;;17.55;71.14;94761.41;5052565;28;20055;-66
2022/09/16 03:37:04;;;;;;;;;;;;;;;17.52;71.80;94762.91;5051237;28;20053;-65
2022/09/16 03:39:30;;;;;;;;;;;;;;;16.95;72.65;94756.44;5070227;28;20496;-65
2022/09/16 03:41:59;;;;;;;;;;;;;;;17.30;72.49;94759.06;5049968;28;20103;-65
2022/09/16 03:44:35;;;;;;;;;;;;;;;17.14;73.08;94759.13;5052065;28;20404;-66
2022/09/16 03:47:01;;;;;;;;;;;;;;;16.53;73.47;94754.41;5049547;28;20846;-65
2022/09/16 03:49:27;;;;;;;;;;;;;;;15.98;75.69;94750.84;5069749;28;20071;-65
2022/09/16 03:51:52;;;;;;;;;;;;;;;16.56;75.13;94753.69;5051370;28;20064;-66
2022/09/16 03:54:17;;;;;;;;;;;;;;;16.95;74.47;94740.34;5070321;28;20052;-65
2022/09/16 03:56:42;;;;;;;;;;;;;;;17.06;74.29;94745.91;5067696;28;20013;-65
2022/09/16 03:59:08;;;;;;;;;;;;;;;17.10;74.00;94742.16;5052082;28;20554;-66
2022/09/16 04:01:33;;;;;;;;;;;;;;;17.30;74.20;94748.31;5050032;28;20020;-65
2022/09/16 04:03:58;;;;;;;;;;;;;;;16.91;73.88;94747.53;5052268;28;20017;-65
2022/09/16 04:06:23;;;;;;;;;;;;;;;16.95;73.70;94753.00;5049831;28;20020;-65
2022/09/16 04:08:50;;;;;;;;;;;;;;;16.89;73.37;94757.88;5068461;28;20098;-65
2022/09/16 04:11:15;;;;;;;;;;;;;;;16.94;74.20;94757.59;5048806;28;20017;-65
2022/09/16 04:13:40;;;;;;;;;;;;;;;17.07;74.53;94755.53;5069535;28;20366;-65
2022/09/16 04:16:05;;;;;;;;;;;;;;;16.86;73.91;94758.56;5049388;28;20021;-65
2022/09/16 04:18:31;;;;;;;;;;;;;;;17.08;74.29;94747.09;5049635;28;20013;-66
2022/09/16 04:20:57;;;;;;;;;;;;;;;17.29;73.96;94754.78;5051828;28;20055;-66
2022/09/16 04:23:26;;;;;;;;;;;;;;;17.28;73.40;94760.53;5050154;28;20033;-66
2022/09/16 04:25:56;;;;;;;;;;;;;;;16.97;73.46;94758.78;5067088;28;20016;-65
2022/09/16 04:28:21;;;;;;;;;;;;;;;17.33;73.94;94758.34;5050380;28;20013;-67
2022/09/16 04:30:46;;;;;;;;;;;;;;;17.52;74.03;94756.75;5062239;28;20023;-66
2022/09/16 04:33:12;;;;;;;;;;;;;;;17.46;73.09;94764.34;5045773;28;20040;-65
2022/09/16 04:35:37;;;;;;;;;;;;;;;17.41;73.42;94767.31;5068788;28;20376;-64
2022/09/16 04:38:02;;;;;;;;;;;;;;;17.48;73.55;94763.97;5068946;28;20481;-66
2022/09/16 04:40:27;;;;;;;;;;;;;;;17.41;73.12;94764.63;5049394;28;20012;-65
2022/09/16 04:42:52;;;;;;;;;;;;;;;17.10;71.85;94768.25;5051637;28;20010;-66
2022/09/16 04:45:18;;;;;;;;;;;;;;;17.29;73.00;94767.47;5049814;28;20430;-65
2022/09/16 04:47:43;;;;;;;;;;;;;;;17.00;72.46;94774.97;5050706;28;20014;-66
2022/09/16 04:50:09;;;;;;;;;;;;;;;16.89;72.40;94779.38;5050793;28;20028;-66
2022/09/16 04:52:35;;;;;;;;;;;;;;;17.07;73.55;94769.75;5067531;28;20009;-66
2022/09/16 04:55:00;;;;;;;;;;;;;;;17.02;72.20;94766.56;5051742;28;20036;-66
2022/09/16 04:57:28;;;;;;;;;;;;;;;17.28;73.21;94773.97;5048478;28;20017;-66
2022/09/16 04:59:53;;;;;;;;;;;;;;;16.84;73.14;94772.34;5051338;28;20016;-65
2022/09/16 05:02:19;;;;;;;;;;;;;;;17.32;73.28;94780.19;5049555;28;20014;-65
2022/09/16 05:04:44;;;;;;;;;;;;;;;16.70;72.50;94774.72;5069581;28;20429;-65
2022/09/16 05:07:09;;;;;;;;;;;;;;;16.63;71.65;94775.34;5054071;28;20540;-66
2022/09/16 05:09:36;;;;;;;;;;;;;;;16.79;73.04;94777.22;5050332;28;20013;-66
2022/09/16 05:12:01;;;;;;;;;;;;;;;16.66;71.36;94767.69;5067062;28;20489;-66
2022/09/16 05:14:26;;;;;;;;;;;;;;;16.87;72.48;94771.63;5038396;28;20020;-67
2022/09/16 05:16:52;;;;;;;;;;;;;;;16.52;72.70;94777.00;5063406;28;20644;-66
2022/09/16 05:19:18;;;;;;;;;;;;;;;16.11;72.82;94787.19;5050276;28;20102;-65
2022/09/16 05:21:43;;;;;;;;;;;;;;;15.79;74.46;94777.59;5052949;28;20434;-67
2022/09/16 05:24:09;;;;;;;;;;;;;;;15.96;74.39;94779.13;5054630;28;20040;-69
2022/09/16 05:26:36;;;;;;;;;;;;;;;16.07;74.54;94772.91;5071128;28;20107;-65
2022/09/16 05:29:02;;;;;;;;;;;;;;;15.59;75.23;94784.72;5064211;28;20115;-67
2022/09/16 05:31:29;;;;;;;;;;;;;;;15.86;74.67;94778.53;5053589;28;20014;-66
2022/09/16 05:33:56;;;;;;;;;;;;;;;16.46;74.56;94778.41;5053197;28;20013;-66
2022/09/16 05:36:21;;;;;;;;;;;;;;;16.64;73.48;94768.06;5045927;28;20010;-65
2022/09/16 05:38:47;;;;;;;;;;;;;;;16.70;72.28;94763.97;5046017;28;20021;-65
2022/09/16 05:41:13;;;;;;;;;;;;;;;17.05;73.45;94761.25;5062911;28;20017;-65
2022/09/16 05:43:39;;;;;;;;;;;;;;;16.97;71.78;94762.25;5037447;28;20018;-64
2022/09/16 05:46:05;;;;;;;;;;;;;;;16.80;72.05;94762.66;5035406;28;20013;-64
2022/09/16 05:48:31;;;;;;;;;;;;;;;16.84;73.02;94755.47;5052576;28;20010;-65
2022/09/16 05:51:00;;;;;;;;;;;;;;;16.59;70.86;94768.34;5034852;28;20021;-65
2022/09/16 05:53:26;;;;;;;;;;;;;;;16.80;70.55;94765.34;5042960;28;20017;-64
2022/09/16 05:55:54;;;;;;;;;;;;;;;16.52;70.75;94771.63;5071248;28;20520;-65
2022/09/16 05:58:19;;;;;;;;;;;;;;;16.14;70.87;94769.63;5069198;28;20108;-64
2022/09/16 06:00:45;;;;;;;;;;;;;;;16.99;73.01;94759.97;5052788;28;20112;-64
2022/09/16 06:03:10;;;;;;;;;;;;;;;16.85;70.63;94760.47;5053942;28;20013;-64
2022/09/16 06:05:35;;;;;;;;;;;;;;;16.79;69.83;94764.56;5071881;28;20048;-63
2022/09/16 06:08:00;;;;;;;;;;;;;;;17.00;69.01;94766.16;5040349;28;20009;-64
2022/09/16 06:10:26;;;;;;;;;;;;;;;17.65;72.01;94766.19;5067613;28;20018;-65
2022/09/16 06:12:51;;;;;;;;;;;;;;;17.82;69.02;94765.78;5069625;28;20016;-66
2022/09/16 06:15:16;;;;;;;;;;;;;;;17.71;67.33;94764.78;5070737;28;20014;-65
2022/09/16 06:17:41;;;;;;;;;;;;;;;17.92;68.10;94765.16;5053241;28;20029;-65
2022/09/16 06:20:12;;;;;;;;;;;;;;;18.12;69.60;94757.03;5071632;28;20116;-65
2022/09/16 06:22:38;;;;;;;;;;;;;;;18.02;70.21;94750.34;5070767;28;20009;-67
2022/09/16 06:25:04;;;;;;;;;;;;;;;17.59;68.76;94752.28;5071374;28;20082;-67
2022/09/16 06:27:30;;;;;;;;;;;;;;;17.63;65.77;94758.50;5049727;28;20711;-65
2022/09/16 06:29:55;;;;;;;;;;;;;;;17.61;70.12;94757.31;5070764;28;20014;-67
2022/09/16 06:32:20;;;;;;;;;;;;;;;16.82;68.67;94757.72;5052594;28;20102;-65
2022/09/16 06:34:45;;;;;;;;;;;;;;;17.23;69.13;94763.50;5070613;28;20009;-66
2022/09/16 06:37:12;;;;;;;;;;;;;;;17.23;68.75;94761.59;5071251;28;20018;-66
2022/09/16 06:39:37;;;;;;;;;;;;;;;17.28;70.14;94753.25;5051875;28;20008;-67
2022/09/16 06:42:02;;;;;;;;;;;;;;;17.70;70.77;94757.81;5069263;28;20127;-67
2022/09/16 06:44:27;;;;;;;;;;;;;;;17.20;68.52;94764.22;5069879;28;20024;-66
2022/09/16 06:46:53;;;;;;;;;;;;;;;16.89;68.04;94760.56;5053126;28;20415;-66
2022/09/16 06:49:18;;;;;;;;;;;;;;;17.30;66.74;94772.50;5070325;28;20517;-65
2022/09/16 06:51:43;;;;;;;;;;;;;;;17.22;67.28;94765.41;5069818;28;20051;-67
2022/09/16 06:54:08;;;;;;;;;;;;;;;17.80;67.42;94762.66;5070157;28;20013;-71
2022/09/16 06:56:36;;;;;;;;;;;;;;;18.21;70.65;94756.75;5071306;28;20031;-71
2022/09/16 06:59:01;;;;;;;;;;;;;;;18.39;70.67;94757.81;5070900;28;20016;-71
2022/09/16 07:01:28;;;;;;;;;;;;;;;17.34;68.56;94759.88;5053037;28;20009;-70
2022/09/16 07:03:53;;;;;;;;;;;;;;;17.63;70.42;94760.41;5053267;28;20009;-71
2022/09/16 07:06:19;;;;;;;;;;;;;;;18.22;69.51;94756.41;5071332;28;20469;-71
2022/09/16 07:08:45;;;;;;;;;;;;;;;18.46;70.33;94757.91;5070844;28;20480;-72
2022/09/16 07:11:11;;;;;;;;;;;;;;;18.83;69.00;94760.75;5070974;28;20042;-71
2022/09/16 07:13:37;;;;;;;;;;;;;;;19.08;67.28;94758.34;5071337;28;20031;-70
2022/09/16 07:16:04;;;;;;;;;;;;;;;19.31;69.21;94755.56;5070968;28;20013;-66
2022/09/16 07:18:30;;;;;;;;;;;;;;;19.62;69.66;94748.97;5070435;28;20123;-66
2022/09/16 07:21:06;;;;;;;;;;;;;;;19.88;69.43;94756.13;5070720;28;20104;-66
2022/09/16 07:23:33;;;;;;;;;;;;;;;20.14;68.91;94751.72;5052709;28;20009;-66
2022/09/16 07:25:59;;;;;;;;;;;;;;;19.66;65.38;94757.88;5052921;28;20021;-66
2022/09/16 07:28:24;;;;;;;;;;;;;;;19.94;67.07;94756.56;5069966;28;20104;-66
2022/09/16 07:30:49;;;;;;;;;;;;;;;20.14;67.42;94757.13;5052614;28;20119;-68
2022/09/16 07:33:15;;;;;;;;;;;;;;;20.25;65.08;94758.75;5070341;28;20010;-66
2022/09/16 07:35:40;;;;;;;;;;;;;;;20.37;67.02;94759.59;5052763;28;20005;-66
2022/09/16 07:38:05;;;;;;;;;;;;;;;20.43;66.42;94763.53;5070388;28;20005;-67
2022/09/16 07:40:30;;;;;;;;;;;;;;;20.46;67.26;94760.06;5070065;28;20036;-66
2022/09/16 07:42:56;;;;;;;;;;;;;;;20.55;67.29;94763.22;5052011;28;20013;-66
2022/09/16 07:45:21;;;;;;;;;;;;;;;20.64;67.60;94752.88;5052124;28;20010;-66
2022/09/16 07:47:50;;;;;;;;;;;;;;;20.72;67.01;94754.44;5052279;28;20005;-67
2022/09/16 07:50:15;;;;;;;;;;;;;;;20.87;67.13;94744.47;5051521;28;20067;-67
2022/09/16 07:52:40;;;;;;;;;;;;;;;20.95;66.60;94746.06;5052206;28;20236;-67
2022/09/16 07:55:05;;;;;;;;;;;;;;;21.09;66.54;94742.66;5052245;28;20055;-66
2022/09/16 07:57:31;;;;;;;;;;;;;;;21.19;66.96;94743.84;5070434;28;20005;-66
2022/09/16 07:59:56;;;;;;;;;;;;;;;21.18;65.52;94745.78;5051674;28;20044;-67
2022/09/16 08:02:21;;;;;;;;;;;;;;;21.31;65.95;94754.34;5052177;28;20015;-67
2022/09/16 08:04:47;;;;;;;;;;;;;;;21.46;65.70;94745.13;5051977;28;20020;-67
2022/09/16 08:07:12;;;;;;;;;;;;;;;21.51;64.76;94752.09;5052404;28;20009;-67
2022/09/16 08:09:38;;;;;;;;;;;;;;;21.61;64.36;94747.88;5051500;28;20021;-67
2022/09/16 08:12:04;;;;;;;;;;;;;;;20.83;56.30;94745.63;5052187;28;20009;-66
2022/09/16 08:14:29;;;;;;;;;;;;;;;21.24;63.77;94746.97;5052055;28;20016;-66
2022/09/16 08:16:54;;;;;;;;;;;;;;;21.53;65.16;94747.06;5070021;28;20128;-67
2022/09/16 08:19:21;;;;;;;;;;;;;;;21.28;55.13;94755.84;5051589;28;20013;-67
2022/09/16 08:21:46;;;;;;;;;;;;;;;21.54;63.81;94757.50;5069870;28;20013;-67
2022/09/16 08:24:11;;;;;;;;;;;;;;;20.05;58.75;94757.44;5051945;28;20014;-67
2022/09/16 08:26:37;;;;;;;;;;;;;;;18.92;60.41;94772.03;5051839;28;20473;-67
2022/09/16 08:29:02;;;;;;;;;;;;;;;17.97;62.63;94761.41;5069440;28;20066;-67
2022/09/16 08:31:27;;;;;;;;;;;;;;;17.89;63.61;94763.19;5051510;28;20493;-67
2022/09/16 08:33:52;;;;;;;;;;;;;;;17.59;63.78;94773.78;5052002;28;20766;-67
2022/09/16 08:36:19;;;;;;;;;;;;;;;17.75;64.84;94767.53;5069770;28;20005;-67
2022/09/16 08:38:45;;;;;;;;;;;;;;;18.73;64.97;94768.69;5051089;28;20543;-67
2022/09/16 08:41:16;;;;;;;;;;;;;;;19.65;62.45;94758.22;5069762;28;20041;-66
2022/09/16 08:43:44;;;;;;;;;;;;;;;20.49;66.54;94756.63;5069774;28;20011;-67
2022/09/16 08:46:16;;;;;;;;;;;;;;;20.25;57.49;94752.56;5069729;28;20432;-68
2022/09/16 08:48:42;;;;;;;;;;;;;;;20.42;62.30;94753.84;5069324;28;20010;-67
2022/09/16 08:51:11;;;;;;;;;;;;;;;20.78;59.94;94757.59;5069410;28;20112;-67
2022/09/16 08:53:40;;;;;;;;;;;;;;;20.49;58.07;94749.31;5051524;28;20112;-67
2022/09/16 08:56:07;;;;;;;;;;;;;;;19.12;58.83;94756.47;5072488;28;20032;-67
2022/09/16 08:58:40;;;;;;;;;;;;;;;18.86;58.85;94702.66;5073197;28;20013;-67
2022/09/16 09:01:25;;;;;;;;;;;;;;;19.45;61.01;94754.94;5055518;28;20074;-67
2022/09/16 09:03:50;;;;;;;;;;;;;;;19.70;57.13;94765.97;5055648;28;20013;-67
2022/09/16 09:06:18;;;;;;;;;;;;;;;19.15;60.17;94763.06;5073397;28;20008;-68
2022/09/16 09:09:02;;;;;;;;;;;;;;;19.03;61.84;94769.47;5055097;28;20578;-67
2022/09/16 09:11:34;;;;;;;;;;;;;;;18.50;61.84;94766.03;5055191;28;20017;-66
2022/09/16 09:14:05;;;;;;;;;;;;;;;19.11;60.34;94760.34;5055388;28;20033;-67
2022/09/16 09:16:31;;;;;;;;;;;;;;;18.87;60.01;94752.72;5073297;28;20059;-67
2022/09/16 09:18:59;;;;;;;;;;;;;;;18.80;61.86;94758.03;5072769;28;20465;-67
2022/09/16 09:21:39;;;;;;;;;;;;;;;17.70;62.19;94754.38;5055149;28;20009;-67
2022/09/16 09:24:16;;;;;;;;;;;;;;;17.48;63.34;94756.69;5055845;28;20016;-67
2022/09/16 09:26:49;;;;;;;;;;;;;;;18.07;62.79;94755.41;5055249;28;20036;-67
2022/09/16 09:29:33;;;;;;;;;;;;;;;18.74;63.41;94746.00;5072813;28;20028;-67
2022/09/16 09:32:18;;;;;;;;;;;;;;;18.88;63.64;94746.16;5055186;28;20485;-67
2022/09/16 09:34:51;;;;;;;;;;;;;;;19.43;66.01;94741.03;5027294;28;20016;-70
2022/09/16 09:37:19;;;;;;;;;;;;;;;19.41;63.38;94725.22;5072924;28;20104;-67
2022/09/16 09:40:06;;;;;;;;;;;;;;;20.11;66.99;94730.84;5072338;28;20016;-68
2022/09/16 09:42:36;;;;;;;;;;;;;;;20.38;64.37;94734.16;5072788;28;20092;-69
2022/09/16 09:45:04;;;;;;;;;;;;;;;20.48;65.32;94733.47;5049083;28;20381;-71
2022/09/16 09:47:39;;;;;;;;;;;;;;;20.87;65.68;94724.78;5070238;28;20020;-67
2022/09/16 09:50:11;;;;;;;;;;;;;;;20.68;59.40;94726.66;5072373;28;20017;-70
2022/09/16 09:52:42;;;;;;;;;;;;;;;20.35;58.12;94729.50;5073201;28;20103;-68
2022/09/16 09:55:19;;;;;;;;;;;;;;;20.46;60.58;94727.63;5051313;28;20006;-72
2022/09/16 09:57:54;;;;;;;;;;;;;;;19.41;59.33;94727.91;5070720;28;20013;-69
2022/09/16 10:00:20;;;;;;;;;;;;;;;18.72;61.50;94732.13;5070975;28;20009;-71
2022/09/16 10:02:46;;;;;;;;;;;;;;;18.37;64.21;94741.22;5055152;28;20009;-71
2022/09/16 10:05:19;;;;;;;;;;;;;;;18.27;64.59;94734.56;5055482;28;20342;-71
2022/09/16 10:07:44;;;;;;;;;;;;;;;18.63;68.07;94737.72;5054304;28;20009;-70
2022/09/16 10:10:19;;;;;;;;;;;;;;;18.30;66.90;94738.44;5072521;28;20009;-73
2022/09/16 10:12:44;;;;;;;;;;;;;;;18.69;68.16;94725.56;5072998;28;20452;-68
2022/09/16 10:15:20;;;;;;;;;;;;;;;18.33;66.59;94724.25;5071157;28;20109;-66
2022/09/16 10:17:50;;;;;;;;;;;;;;;18.42;68.28;94722.84;5072856;28;20005;-68
2022/09/16 10:20:38;;;;;;;;;;;;;;;18.25;67.13;94720.69;5071922;28;20354;-70
2022/09/16 10:23:11;;;;;;;;;;;;;;;18.11;69.31;94715.84;5064509;28;20013;-68
2022/09/16 10:25:36;;;;;;;;;;;;;;;18.24;70.49;94716.44;5072558;28;20112;-69
2022/09/16 10:28:03;;;;;;;;;;;;;;;18.62;70.17;94710.03;5072601;28;20690;-68
2022/09/16 10:30:48;;;;;;;;;;;;;;;18.93;71.22;94708.91;5051934;28;20022;-68
2022/09/16 10:33:22;;;;;;;;;;;;;;;18.96;69.77;94715.47;5072324;28;20103;-68
2022/09/16 10:35:56;;;;;;;;;;;;;;;17.73;69.33;94702.59;5054335;28;20058;-68
2022/09/16 10:38:23;;;;;;;;;;;;;;;17.96;71.38;94700.63;5071764;28;20020;-68
2022/09/16 10:40:52;;;;;;;;;;;;;;;18.65;72.43;94698.53;5072233;28;20109;-69
2022/09/16 10:43:18;;;;;;;;;;;;;;;19.14;71.28;94696.81;5072304;28;20012;-68
2022/09/16 10:45:48;;;;;;;;;;;;;;;19.44;72.26;94688.63;5052274;28;20129;-68
2022/09/16 10:48:18;;;;;;;;;;;;;;;19.64;71.32;94684.59;5053736;28;20044;-69
2022/09/16 10:50:59;;;;;;;;;;;;;;;19.90;71.92;94683.66;5070650;28;20022;-68
2022/09/16 10:53:39;;;;;;;;;;;;;;;19.69;67.90;94684.25;5054149;28;20009;-69
2022/09/16 10:56:05;;;;;;;;;;;;;;;19.42;66.57;94675.53;5053904;28;20396;-69
2022/09/16 10:58:31;;;;;;;;;;;;;;;18.69;63.05;94688.59;5053474;28;20017;-68
2022/09/16 11:01:02;;;;;;;;;;;;;;;16.94;69.11;94689.63;5052435;28;20020;-69
2022/09/16 11:03:35;;;;;;;;;;;;;;;16.87;71.47;94698.34;5054005;28;20013;-69
2022/09/16 11:06:07;;;;;;;;;;;;;;;16.24;72.31;94707.38;5071736;28;20044;-69
2022/09/16 11:08:51;;;;;;;;;;;;;;;14.30;76.10;94727.56;5070868;28;20100;-68
2022/09/16 11:11:31;;;;;;;;;;;;;;;14.11;77.70;94718.56;5053549;28;20063;-69
2022/09/16 11:14:03;;;;;;;;;;;;;;;14.26;74.55;94715.19;5071456;28;20005;-68
2022/09/16 11:16:44;;;;;;;;;;;;;;;14.75;75.06;94702.50;5070614;28;20013;-69
2022/09/16 11:19:25;;;;;;;;;;;;;;;14.48;75.92;94709.38;5069844;28;20109;-69
2022/09/16 11:21:55;;;;;;;;;;;;;;;14.11;76.81;94745.31;5053323;28;20009;-68
2022/09/16 11:24:29;;;;;;;;;;;;;;;14.50;75.45;94725.88;5071096;28;20364;-68
2022/09/16 11:27:04;;;;;;;;;;;;;;;14.19;77.03;94723.81;5053433;28;20020;-68
2022/09/16 11:29:47;;;;;;;;;;;;;;;15.14;73.20;94704.66;5051671;28;20465;-68
2022/09/16 11:32:28;;;;;;;;;;;;;;;14.90;73.22;94713.63;5049593;28;20048;-68
2022/09/16 11:35:16;;;;;;;;;;;;;;;14.24;73.63;94728.16;5033040;28;20068;-68
2022/09/16 11:38:04;;;;;;;;;;;;;;;13.36;78.13;94738.38;5049807;28;20009;-67
2022/09/16 11:40:29;;;;;;;;;;;;;;;14.40;77.22;94742.38;5032594;28;20477;-68
2022/09/16 11:42:55;;;;;;;;;;;;;;;13.40;81.14;94751.81;5033061;28;20012;-68
2022/09/16 11:45:37;;;;;;;;;;;;;;;12.61;85.24;94758.94;5039264;28;20014;-67
2022/09/16 11:48:21;;;;;;;;;;;;;;;13.20;83.19;94761.41;5070882;28;20569;-68
2022/09/16 11:50:52;;;;;;;;;;;;;;;13.71;81.47;94762.00;5069135;28;20021;-67
2022/09/16 11:53:30;;;;;;;;;;;;;;;12.67;83.74;94765.66;5070705;28;20380;-67
2022/09/16 11:55:59;;;;;;;;;;;;;;;12.91;83.82;94762.31;5052570;28;20009;-67
2022/09/16 11:58:25;;;;;;;;;;;;;;;13.21;82.46;94765.66;5069868;28;20456;-67
2022/09/16 12:00:51;;;;;;;;;;;;;;;12.82;82.52;94778.41;5069199;28;20019;-68
2022/09/16 12:03:22;;;;;;;;;;;;;;;12.94;83.20;94778.44;5052533;28;20032;-68
2022/09/16 12:05:53;;;;;;;;;;;;;;;12.99;84.09;94772.91;5070518;28;20006;-67
2022/09/16 12:08:26;;;;;;;;;;;;;;;12.65;84.68;94775.88;5052015;28;20062;-67
2022/09/16 12:10:55;;;;;;;;;;;;;;;13.15;83.99;94770.41;5070332;28;20021;-68
2022/09/16 12:13:35;;;;;;;;;;;;;;;12.97;83.81;94769.78;5052585;28;20016;-67
2022/09/16 12:16:08;;;;;;;;;;;;;;;13.95;82.30;94775.41;5069577;28;20059;-67
2022/09/16 12:19:00;;;;;;;;;;;;;;;13.87;81.48;94789.66;5047098;28;20013;-67
2022/09/16 12:21:38;;;;;;;;;;;;;;;13.49;82.23;94785.34;5047255;28;20017;-67
2022/09/16 12:24:39;;;;;;;;;;;;;;;13.53;83.33;94794.28;5052540;28;20111;-67
2022/09/16 12:27:08;;;;;;;;;;;;;;;13.61;81.70;94789.16;4969037;28;20014;-67
2022/09/16 12:29:48;;;;;;;;;;;;;;;13.25;82.06;94795.97;5033284;28;20035;-67
2022/09/16 12:32:20;;;;;;;;;;;;;;;13.24;83.11;94789.06;5051204;28;20013;-68
2022/09/16 12:34:48;;;;;;;;;;;;;;;13.35;82.24;94794.75;5070127;28;20005;-67
2022/09/16 12:37:25;;;;;;;;;;;;;;;14.21;79.63;94814.41;5052244;28;20016;-67
2022/09/16 12:39:51;;;;;;;;;;;;;;;13.31;81.76;94805.34;5069643;28;20009;-67
2022/09/16 12:42:29;;;;;;;;;;;;;;;12.83;84.34;94817.31;5051825;28;20469;-68
2022/09/16 12:44:54;;;;;;;;;;;;;;;12.96;84.12;94815.50;5051971;28;20116;-66
2022/09/16 12:47:38;;;;;;;;;;;;;;;13.20;84.06;94809.47;5069047;28;20083;-67
2022/09/16 12:50:15;;;;;;;;;;;;;;;13.55;83.60;94809.97;5051299;28;20056;-67
2022/09/16 12:53:00;;;;;;;;;;;;;;;13.82;81.48;94811.28;5069813;28;20009;-67
2022/09/16 12:55:26;;;;;;;;;;;;;;;13.24;82.78;94807.75;5051901;28;20013;-67
2022/09/16 12:58:09;;;;;;;;;;;;;;;13.52;82.41;94814.09;5069826;28;20092;-67
2022/09/16 13:00:38;;;;;;;;;;;;;;;13.53;80.72;94821.00;5068714;28;20064;-68
2022/09/16 13:03:13;;;;;;;;;;;;;;;14.40;80.10;94809.28;5069855;28;20015;-66